<?xml version="1.0" encoding="UTF-8" standalone="no" ?>
<gpx xmlns="http://www.topografix.com/GPX/1/1" xmlns:xsi="http://www.w3.org/2001/XMLSchema-instance" xsi:schemaLocation="http://www.topografix.com/GPX/1/1 http://www.topografix.com/GPX/1/1/gpx.xsd" version="1.1" creator="VisuGPX - https://www.visugpx.com">
  <metadata>
    <name>Trail 21 Km</name>
    <desc><![CDATA[Circuit 21 Km du BTT ayant lieu le 17 juin 2017.
]]></desc>
  </metadata>
  <trk>
    <name><![CDATA[OR-7125079--Clairvaux-d'Aveyron:V20_4]]></name>
    <trkseg>
      <trkpt lat="44.41468" lon="2.42043">
        <ele>353</ele>
        <time>2017-05-02T21:07:55Z</time>
      </trkpt>
      <trkpt lat="44.41442" lon="2.42063">
        <ele>353</ele>
        <time>2017-05-02T21:09:55Z</time>
      </trkpt>
      <trkpt lat="44.41415" lon="2.42062">
        <ele>354</ele>
        <time>2017-05-02T21:11:55Z</time>
      </trkpt>
      <trkpt lat="44.41318" lon="2.42032">
        <ele>359</ele>
        <time>2017-05-02T21:13:55Z</time>
      </trkpt>
      <trkpt lat="44.41257" lon="2.42031">
        <ele>356</ele>
        <time>2017-05-02T21:15:55Z</time>
      </trkpt>
      <trkpt lat="44.41216" lon="2.42069">
        <ele>358</ele>
        <time>2017-05-02T21:17:55Z</time>
      </trkpt>
      <trkpt lat="44.41168" lon="2.42106">
        <ele>363</ele>
        <time>2017-05-02T21:19:55Z</time>
      </trkpt>
      <trkpt lat="44.41119" lon="2.42132">
        <ele>365</ele>
        <time>2017-05-02T21:21:55Z</time>
      </trkpt>
      <trkpt lat="44.41041" lon="2.42144">
        <ele>367</ele>
        <time>2017-05-02T21:23:55Z</time>
      </trkpt>
      <trkpt lat="44.4098" lon="2.42151">
        <ele>372</ele>
        <time>2017-05-02T21:25:55Z</time>
      </trkpt>
      <trkpt lat="44.40934" lon="2.42164">
        <ele>379</ele>
        <time>2017-05-02T21:27:55Z</time>
      </trkpt>
      <trkpt lat="44.40857" lon="2.422">
        <ele>387</ele>
        <time>2017-05-02T21:29:55Z</time>
      </trkpt>
      <trkpt lat="44.40842" lon="2.42325">
        <ele>386</ele>
        <time>2017-05-02T21:31:55Z</time>
      </trkpt>
      <trkpt lat="44.40811" lon="2.42374">
        <ele>385</ele>
        <time>2017-05-02T21:33:55Z</time>
      </trkpt>
      <trkpt lat="44.40776" lon="2.42468">
        <ele>386</ele>
        <time>2017-05-02T21:35:55Z</time>
      </trkpt>
      <trkpt lat="44.40779" lon="2.42544">
        <ele>387</ele>
        <time>2017-05-02T21:37:55Z</time>
      </trkpt>
      <trkpt lat="44.40777" lon="2.42571">
        <ele>387</ele>
        <time>2017-05-02T21:39:55Z</time>
      </trkpt>
      <trkpt lat="44.40779" lon="2.42614">
        <ele>388</ele>
        <time>2017-05-02T21:41:55Z</time>
      </trkpt>
      <trkpt lat="44.40776" lon="2.42651">
        <ele>390</ele>
        <time>2017-05-02T21:43:55Z</time>
      </trkpt>
      <trkpt lat="44.40753" lon="2.4267">
        <ele>391</ele>
        <time>2017-05-02T21:45:55Z</time>
      </trkpt>
      <trkpt lat="44.40724" lon="2.427">
        <ele>393</ele>
        <time>2017-05-02T21:47:55Z</time>
      </trkpt>
      <trkpt lat="44.40676" lon="2.42698">
        <ele>391</ele>
        <time>2017-05-02T21:49:55Z</time>
      </trkpt>
      <trkpt lat="44.40652" lon="2.427">
        <ele>392</ele>
        <time>2017-05-02T21:51:55Z</time>
      </trkpt>
      <trkpt lat="44.40622" lon="2.42722">
        <ele>395</ele>
        <time>2017-05-02T21:53:55Z</time>
      </trkpt>
      <trkpt lat="44.40567" lon="2.4272">
        <ele>398</ele>
        <time>2017-05-02T21:55:55Z</time>
      </trkpt>
      <trkpt lat="44.40535" lon="2.42735">
        <ele>401</ele>
        <time>2017-05-02T21:57:55Z</time>
      </trkpt>
      <trkpt lat="44.40497" lon="2.4278">
        <ele>407</ele>
        <time>2017-05-02T21:59:55Z</time>
      </trkpt>
      <trkpt lat="44.40463" lon="2.42788">
        <ele>407</ele>
        <time>2017-05-02T22:01:55Z</time>
      </trkpt>
      <trkpt lat="44.40414" lon="2.42833">
        <ele>413</ele>
        <time>2017-05-02T22:03:55Z</time>
      </trkpt>
      <trkpt lat="44.40374" lon="2.42838">
        <ele>413</ele>
        <time>2017-05-02T22:05:55Z</time>
      </trkpt>
      <trkpt lat="44.40343" lon="2.42808">
        <ele>409</ele>
        <time>2017-05-02T22:07:55Z</time>
      </trkpt>
      <trkpt lat="44.40336" lon="2.42767">
        <ele>403</ele>
        <time>2017-05-02T22:09:55Z</time>
      </trkpt>
      <trkpt lat="44.40322" lon="2.42726">
        <ele>396</ele>
        <time>2017-05-02T22:11:55Z</time>
      </trkpt>
      <trkpt lat="44.4029" lon="2.42713">
        <ele>392</ele>
        <time>2017-05-02T22:13:55Z</time>
      </trkpt>
      <trkpt lat="44.40268" lon="2.42726">
        <ele>391</ele>
        <time>2017-05-02T22:15:55Z</time>
      </trkpt>
      <trkpt lat="44.40251" lon="2.42748">
        <ele>393</ele>
        <time>2017-05-02T22:17:55Z</time>
      </trkpt>
      <trkpt lat="44.40267" lon="2.42805">
        <ele>402</ele>
        <time>2017-05-02T22:19:55Z</time>
      </trkpt>
      <trkpt lat="44.40273" lon="2.42859">
        <ele>412</ele>
        <time>2017-05-02T22:21:55Z</time>
      </trkpt>
      <trkpt lat="44.40232" lon="2.42865">
        <ele>411</ele>
        <time>2017-05-02T22:23:55Z</time>
      </trkpt>
      <trkpt lat="44.40213" lon="2.42889">
        <ele>415</ele>
        <time>2017-05-02T22:25:55Z</time>
      </trkpt>
      <trkpt lat="44.40215" lon="2.42904">
        <ele>418</ele>
        <time>2017-05-02T22:27:55Z</time>
      </trkpt>
      <trkpt lat="44.40197" lon="2.42928">
        <ele>421</ele>
        <time>2017-05-02T22:29:55Z</time>
      </trkpt>
      <trkpt lat="44.40172" lon="2.42967">
        <ele>427</ele>
        <time>2017-05-02T22:31:55Z</time>
      </trkpt>
      <trkpt lat="44.40167" lon="2.42985">
        <ele>430</ele>
        <time>2017-05-02T22:33:55Z</time>
      </trkpt>
      <trkpt lat="44.40171" lon="2.43018">
        <ele>437</ele>
        <time>2017-05-02T22:35:55Z</time>
      </trkpt>
      <trkpt lat="44.40147" lon="2.43029">
        <ele>436</ele>
        <time>2017-05-02T22:37:55Z</time>
      </trkpt>
      <trkpt lat="44.4014" lon="2.4304">
        <ele>437</ele>
        <time>2017-05-02T22:39:55Z</time>
      </trkpt>
      <trkpt lat="44.40149" lon="2.43076">
        <ele>446</ele>
        <time>2017-05-02T22:41:55Z</time>
      </trkpt>
      <trkpt lat="44.40152" lon="2.43107">
        <ele>454</ele>
        <time>2017-05-02T22:43:55Z</time>
      </trkpt>
      <trkpt lat="44.40141" lon="2.43117">
        <ele>455</ele>
        <time>2017-05-02T22:45:55Z</time>
      </trkpt>
      <trkpt lat="44.40116" lon="2.43194">
        <ele>470</ele>
        <time>2017-05-02T22:47:55Z</time>
      </trkpt>
      <trkpt lat="44.40113" lon="2.43212">
        <ele>474</ele>
        <time>2017-05-02T22:49:55Z</time>
      </trkpt>
      <trkpt lat="44.40098" lon="2.4322">
        <ele>473</ele>
        <time>2017-05-02T22:51:55Z</time>
      </trkpt>
      <trkpt lat="44.40092" lon="2.43233">
        <ele>474</ele>
        <time>2017-05-02T22:53:55Z</time>
      </trkpt>
      <trkpt lat="44.40078" lon="2.43258">
        <ele>475</ele>
        <time>2017-05-02T22:55:55Z</time>
      </trkpt>
      <trkpt lat="44.40099" lon="2.43283">
        <ele>486</ele>
        <time>2017-05-02T22:57:55Z</time>
      </trkpt>
      <trkpt lat="44.4014" lon="2.43319">
        <ele>509</ele>
        <time>2017-05-02T22:59:55Z</time>
      </trkpt>
      <trkpt lat="44.40152" lon="2.4332">
        <ele>514</ele>
        <time>2017-05-02T23:01:55Z</time>
      </trkpt>
      <trkpt lat="44.40166" lon="2.43312">
        <ele>517</ele>
        <time>2017-05-02T23:03:55Z</time>
      </trkpt>
      <trkpt lat="44.40172" lon="2.43322">
        <ele>522</ele>
        <time>2017-05-02T23:05:55Z</time>
      </trkpt>
      <trkpt lat="44.4018" lon="2.43314">
        <ele>522</ele>
        <time>2017-05-02T23:07:55Z</time>
      </trkpt>
      <trkpt lat="44.4019" lon="2.43295">
        <ele>518</ele>
        <time>2017-05-02T23:09:55Z</time>
      </trkpt>
      <trkpt lat="44.40209" lon="2.43287">
        <ele>520</ele>
        <time>2017-05-02T23:11:55Z</time>
      </trkpt>
      <trkpt lat="44.40226" lon="2.43294">
        <ele>526</ele>
        <time>2017-05-02T23:13:55Z</time>
      </trkpt>
      <trkpt lat="44.40223" lon="2.43304">
        <ele>529</ele>
        <time>2017-05-02T23:15:55Z</time>
      </trkpt>
      <trkpt lat="44.40203" lon="2.43325">
        <ele>531</ele>
        <time>2017-05-02T23:17:55Z</time>
      </trkpt>
      <trkpt lat="44.40184" lon="2.43366">
        <ele>535</ele>
        <time>2017-05-02T23:19:55Z</time>
      </trkpt>
      <trkpt lat="44.40177" lon="2.4339">
        <ele>538</ele>
        <time>2017-05-02T23:21:55Z</time>
      </trkpt>
      <trkpt lat="44.4017" lon="2.43432">
        <ele>542</ele>
        <time>2017-05-02T23:23:55Z</time>
      </trkpt>
      <trkpt lat="44.40168" lon="2.4348">
        <ele>546</ele>
        <time>2017-05-02T23:25:55Z</time>
      </trkpt>
      <trkpt lat="44.40168" lon="2.43541">
        <ele>548</ele>
        <time>2017-05-02T23:27:55Z</time>
      </trkpt>
      <trkpt lat="44.4018" lon="2.43609">
        <ele>550</ele>
        <time>2017-05-02T23:29:55Z</time>
      </trkpt>
      <trkpt lat="44.40185" lon="2.43717">
        <ele>549</ele>
        <time>2017-05-02T23:31:55Z</time>
      </trkpt>
      <trkpt lat="44.40171" lon="2.4378">
        <ele>550</ele>
        <time>2017-05-02T23:33:55Z</time>
      </trkpt>
      <trkpt lat="44.40166" lon="2.43814">
        <ele>552</ele>
        <time>2017-05-02T23:35:55Z</time>
      </trkpt>
      <trkpt lat="44.40152" lon="2.4384">
        <ele>551</ele>
        <time>2017-05-02T23:37:55Z</time>
      </trkpt>
      <trkpt lat="44.40153" lon="2.43866">
        <ele>556</ele>
        <time>2017-05-02T23:39:55Z</time>
      </trkpt>
      <trkpt lat="44.40163" lon="2.43909">
        <ele>567</ele>
        <time>2017-05-02T23:41:55Z</time>
      </trkpt>
      <trkpt lat="44.40174" lon="2.43933">
        <ele>571</ele>
        <time>2017-05-02T23:43:55Z</time>
      </trkpt>
      <trkpt lat="44.40186" lon="2.43975">
        <ele>576</ele>
        <time>2017-05-02T23:45:55Z</time>
      </trkpt>
      <trkpt lat="44.40205" lon="2.44016">
        <ele>579</ele>
        <time>2017-05-02T23:47:55Z</time>
      </trkpt>
      <trkpt lat="44.40233" lon="2.44047">
        <ele>581</ele>
        <time>2017-05-02T23:49:55Z</time>
      </trkpt>
      <trkpt lat="44.4025" lon="2.44127">
        <ele>583</ele>
        <time>2017-05-02T23:51:55Z</time>
      </trkpt>
      <trkpt lat="44.40258" lon="2.44177">
        <ele>584</ele>
        <time>2017-05-02T23:53:55Z</time>
      </trkpt>
      <trkpt lat="44.40256" lon="2.4423">
        <ele>584</ele>
        <time>2017-05-02T23:55:55Z</time>
      </trkpt>
      <trkpt lat="44.40247" lon="2.44273">
        <ele>585</ele>
        <time>2017-05-02T23:57:55Z</time>
      </trkpt>
      <trkpt lat="44.4024" lon="2.44332">
        <ele>585</ele>
        <time>2017-05-02T23:59:55Z</time>
      </trkpt>
      <trkpt lat="44.40232" lon="2.44371">
        <ele>585</ele>
        <time>2017-05-03T00:01:55Z</time>
      </trkpt>
      <trkpt lat="44.40231" lon="2.44425">
        <ele>584</ele>
        <time>2017-05-03T00:03:55Z</time>
      </trkpt>
      <trkpt lat="44.40238" lon="2.44428">
        <ele>584</ele>
        <time>2017-05-03T00:05:55Z</time>
      </trkpt>
      <trkpt lat="44.40253" lon="2.44397">
        <ele>585</ele>
        <time>2017-05-03T00:07:55Z</time>
      </trkpt>
      <trkpt lat="44.40273" lon="2.44396">
        <ele>583</ele>
        <time>2017-05-03T00:09:55Z</time>
      </trkpt>
      <trkpt lat="44.40275" lon="2.44387">
        <ele>583</ele>
        <time>2017-05-03T00:11:55Z</time>
      </trkpt>
      <trkpt lat="44.40283" lon="2.44361">
        <ele>583</ele>
        <time>2017-05-03T00:13:55Z</time>
      </trkpt>
      <trkpt lat="44.40287" lon="2.44357">
        <ele>583</ele>
        <time>2017-05-03T00:15:55Z</time>
      </trkpt>
      <trkpt lat="44.40289" lon="2.44312">
        <ele>583</ele>
        <time>2017-05-03T00:17:55Z</time>
      </trkpt>
      <trkpt lat="44.40283" lon="2.44309">
        <ele>583</ele>
        <time>2017-05-03T00:19:55Z</time>
      </trkpt>
      <trkpt lat="44.40281" lon="2.44268">
        <ele>583</ele>
        <time>2017-05-03T00:21:55Z</time>
      </trkpt>
      <trkpt lat="44.40345" lon="2.44273">
        <ele>578</ele>
        <time>2017-05-03T00:23:55Z</time>
      </trkpt>
      <trkpt lat="44.40374" lon="2.44292">
        <ele>574</ele>
        <time>2017-05-03T00:25:55Z</time>
      </trkpt>
      <trkpt lat="44.40374" lon="2.44318">
        <ele>574</ele>
        <time>2017-05-03T00:27:55Z</time>
      </trkpt>
      <trkpt lat="44.40397" lon="2.44329">
        <ele>570</ele>
        <time>2017-05-03T00:29:55Z</time>
      </trkpt>
      <trkpt lat="44.40434" lon="2.4435">
        <ele>563</ele>
        <time>2017-05-03T00:31:55Z</time>
      </trkpt>
      <trkpt lat="44.40454" lon="2.4438">
        <ele>560</ele>
        <time>2017-05-03T00:33:55Z</time>
      </trkpt>
      <trkpt lat="44.40488" lon="2.44413">
        <ele>558</ele>
        <time>2017-05-03T00:35:55Z</time>
      </trkpt>
      <trkpt lat="44.40512" lon="2.4441">
        <ele>556</ele>
        <time>2017-05-03T00:37:55Z</time>
      </trkpt>
      <trkpt lat="44.40546" lon="2.4441">
        <ele>555</ele>
        <time>2017-05-03T00:39:55Z</time>
      </trkpt>
      <trkpt lat="44.40578" lon="2.44406">
        <ele>554</ele>
        <time>2017-05-03T00:41:55Z</time>
      </trkpt>
      <trkpt lat="44.40604" lon="2.44378">
        <ele>548</ele>
        <time>2017-05-03T00:43:55Z</time>
      </trkpt>
      <trkpt lat="44.40664" lon="2.4437">
        <ele>553</ele>
        <time>2017-05-03T00:45:55Z</time>
      </trkpt>
      <trkpt lat="44.40719" lon="2.44357">
        <ele>553</ele>
        <time>2017-05-03T00:47:55Z</time>
      </trkpt>
      <trkpt lat="44.40765" lon="2.44359">
        <ele>553</ele>
        <time>2017-05-03T00:49:55Z</time>
      </trkpt>
      <trkpt lat="44.40808" lon="2.44393">
        <ele>559</ele>
        <time>2017-05-03T00:51:55Z</time>
      </trkpt>
      <trkpt lat="44.40854" lon="2.44425">
        <ele>565</ele>
        <time>2017-05-03T00:53:55Z</time>
      </trkpt>
      <trkpt lat="44.40894" lon="2.4443">
        <ele>566</ele>
        <time>2017-05-03T00:55:55Z</time>
      </trkpt>
      <trkpt lat="44.40954" lon="2.44415">
        <ele>561</ele>
        <time>2017-05-03T00:57:55Z</time>
      </trkpt>
      <trkpt lat="44.40981" lon="2.4443">
        <ele>562</ele>
        <time>2017-05-03T00:59:55Z</time>
      </trkpt>
      <trkpt lat="44.41015" lon="2.44466">
        <ele>565</ele>
        <time>2017-05-03T01:01:55Z</time>
      </trkpt>
      <trkpt lat="44.4105" lon="2.44505">
        <ele>572</ele>
        <time>2017-05-03T01:03:55Z</time>
      </trkpt>
      <trkpt lat="44.41093" lon="2.44479">
        <ele>564</ele>
        <time>2017-05-03T01:05:55Z</time>
      </trkpt>
      <trkpt lat="44.41139" lon="2.44462">
        <ele>561</ele>
        <time>2017-05-03T01:07:55Z</time>
      </trkpt>
      <trkpt lat="44.41177" lon="2.44475">
        <ele>567</ele>
        <time>2017-05-03T01:09:55Z</time>
      </trkpt>
      <trkpt lat="44.41223" lon="2.4449">
        <ele>573</ele>
        <time>2017-05-03T01:11:55Z</time>
      </trkpt>
      <trkpt lat="44.41249" lon="2.44503">
        <ele>577</ele>
        <time>2017-05-03T01:13:55Z</time>
      </trkpt>
      <trkpt lat="44.41285" lon="2.44462">
        <ele>569</ele>
        <time>2017-05-03T01:15:55Z</time>
      </trkpt>
      <trkpt lat="44.41351" lon="2.44421">
        <ele>569</ele>
        <time>2017-05-03T01:17:55Z</time>
      </trkpt>
      <trkpt lat="44.41386" lon="2.44406">
        <ele>563</ele>
        <time>2017-05-03T01:19:55Z</time>
      </trkpt>
      <trkpt lat="44.41424" lon="2.44438">
        <ele>569</ele>
        <time>2017-05-03T01:21:55Z</time>
      </trkpt>
      <trkpt lat="44.4147" lon="2.44443">
        <ele>568</ele>
        <time>2017-05-03T01:23:55Z</time>
      </trkpt>
      <trkpt lat="44.4151" lon="2.44413">
        <ele>560</ele>
        <time>2017-05-03T01:25:55Z</time>
      </trkpt>
      <trkpt lat="44.4155" lon="2.44398">
        <ele>556</ele>
        <time>2017-05-03T01:27:55Z</time>
      </trkpt>
      <trkpt lat="44.41582" lon="2.44402">
        <ele>557</ele>
        <time>2017-05-03T01:29:55Z</time>
      </trkpt>
      <trkpt lat="44.41636" lon="2.44378">
        <ele>557</ele>
        <time>2017-05-03T01:31:55Z</time>
      </trkpt>
      <trkpt lat="44.41659" lon="2.44359">
        <ele>557</ele>
        <time>2017-05-03T01:33:55Z</time>
      </trkpt>
      <trkpt lat="44.41671" lon="2.44343">
        <ele>556</ele>
        <time>2017-05-03T01:35:55Z</time>
      </trkpt>
      <trkpt lat="44.41669" lon="2.44315">
        <ele>557</ele>
        <time>2017-05-03T01:37:55Z</time>
      </trkpt>
      <trkpt lat="44.41669" lon="2.44294">
        <ele>560</ele>
        <time>2017-05-03T01:39:55Z</time>
      </trkpt>
      <trkpt lat="44.41665" lon="2.44269">
        <ele>562</ele>
        <time>2017-05-03T01:41:55Z</time>
      </trkpt>
      <trkpt lat="44.41664" lon="2.44248">
        <ele>564</ele>
        <time>2017-05-03T01:43:55Z</time>
      </trkpt>
      <trkpt lat="44.41643" lon="2.44187">
        <ele>569</ele>
        <time>2017-05-03T01:45:55Z</time>
      </trkpt>
      <trkpt lat="44.41608" lon="2.44123">
        <ele>569</ele>
        <time>2017-05-03T01:47:55Z</time>
      </trkpt>
      <trkpt lat="44.41576" lon="2.44071">
        <ele>568</ele>
        <time>2017-05-03T01:49:55Z</time>
      </trkpt>
      <trkpt lat="44.41541" lon="2.44028">
        <ele>565</ele>
        <time>2017-05-03T01:51:55Z</time>
      </trkpt>
      <trkpt lat="44.41507" lon="2.43977">
        <ele>564</ele>
        <time>2017-05-03T01:53:55Z</time>
      </trkpt>
      <trkpt lat="44.41498" lon="2.43938">
        <ele>566</ele>
        <time>2017-05-03T01:55:55Z</time>
      </trkpt>
      <trkpt lat="44.41455" lon="2.43906">
        <ele>566</ele>
        <time>2017-05-03T01:57:55Z</time>
      </trkpt>
      <trkpt lat="44.41419" lon="2.43913">
        <ele>562</ele>
        <time>2017-05-03T01:59:55Z</time>
      </trkpt>
      <trkpt lat="44.41369" lon="2.43904">
        <ele>553</ele>
        <time>2017-05-03T02:01:55Z</time>
      </trkpt>
      <trkpt lat="44.41328" lon="2.43859">
        <ele>555</ele>
        <time>2017-05-03T02:03:55Z</time>
      </trkpt>
      <trkpt lat="44.41301" lon="2.43814">
        <ele>557</ele>
        <time>2017-05-03T02:05:55Z</time>
      </trkpt>
      <trkpt lat="44.4128" lon="2.43777">
        <ele>555</ele>
        <time>2017-05-03T02:07:55Z</time>
      </trkpt>
      <trkpt lat="44.41271" lon="2.43739">
        <ele>554</ele>
        <time>2017-05-03T02:09:55Z</time>
      </trkpt>
      <trkpt lat="44.41271" lon="2.43707">
        <ele>549</ele>
        <time>2017-05-03T02:11:55Z</time>
      </trkpt>
      <trkpt lat="44.41308" lon="2.43662">
        <ele>556</ele>
        <time>2017-05-03T02:13:55Z</time>
      </trkpt>
      <trkpt lat="44.41361" lon="2.4364">
        <ele>563</ele>
        <time>2017-05-03T02:15:55Z</time>
      </trkpt>
      <trkpt lat="44.41401" lon="2.43631">
        <ele>566</ele>
        <time>2017-05-03T02:17:55Z</time>
      </trkpt>
      <trkpt lat="44.41476" lon="2.43638">
        <ele>570</ele>
        <time>2017-05-03T02:19:55Z</time>
      </trkpt>
      <trkpt lat="44.41559" lon="2.43655">
        <ele>570</ele>
        <time>2017-05-03T02:21:55Z</time>
      </trkpt>
      <trkpt lat="44.41588" lon="2.43668">
        <ele>572</ele>
        <time>2017-05-03T02:23:55Z</time>
      </trkpt>
      <trkpt lat="44.41628" lon="2.43679">
        <ele>568</ele>
        <time>2017-05-03T02:25:55Z</time>
      </trkpt>
      <trkpt lat="44.41666" lon="2.43707">
        <ele>569</ele>
        <time>2017-05-03T02:27:55Z</time>
      </trkpt>
      <trkpt lat="44.417" lon="2.43728">
        <ele>573</ele>
        <time>2017-05-03T02:29:55Z</time>
      </trkpt>
      <trkpt lat="44.41721" lon="2.43747">
        <ele>576</ele>
        <time>2017-05-03T02:31:55Z</time>
      </trkpt>
      <trkpt lat="44.41738" lon="2.43799">
        <ele>581</ele>
        <time>2017-05-03T02:33:55Z</time>
      </trkpt>
      <trkpt lat="44.41772" lon="2.43883">
        <ele>587</ele>
        <time>2017-05-03T02:35:55Z</time>
      </trkpt>
      <trkpt lat="44.41792" lon="2.43915">
        <ele>589</ele>
        <time>2017-05-03T02:37:55Z</time>
      </trkpt>
      <trkpt lat="44.41925" lon="2.43835">
        <ele>594</ele>
        <time>2017-05-03T02:39:55Z</time>
      </trkpt>
      <trkpt lat="44.41925" lon="2.43799">
        <ele>592</ele>
        <time>2017-05-03T02:41:55Z</time>
      </trkpt>
      <trkpt lat="44.41999" lon="2.4376">
        <ele>596</ele>
        <time>2017-05-03T02:43:55Z</time>
      </trkpt>
      <trkpt lat="44.42045" lon="2.43741">
        <ele>597</ele>
        <time>2017-05-03T02:45:55Z</time>
      </trkpt>
      <trkpt lat="44.42102" lon="2.43724">
        <ele>596</ele>
        <time>2017-05-03T02:47:55Z</time>
      </trkpt>
      <trkpt lat="44.42146" lon="2.43657">
        <ele>593</ele>
        <time>2017-05-03T02:49:55Z</time>
      </trkpt>
      <trkpt lat="44.42174" lon="2.43554">
        <ele>590</ele>
        <time>2017-05-03T02:51:55Z</time>
      </trkpt>
      <trkpt lat="44.42193" lon="2.4349">
        <ele>591</ele>
        <time>2017-05-03T02:53:55Z</time>
      </trkpt>
      <trkpt lat="44.4223" lon="2.43466">
        <ele>593</ele>
        <time>2017-05-03T02:55:55Z</time>
      </trkpt>
      <trkpt lat="44.42293" lon="2.4349">
        <ele>590</ele>
        <time>2017-05-03T02:57:55Z</time>
      </trkpt>
      <trkpt lat="44.42338" lon="2.43509">
        <ele>587</ele>
        <time>2017-05-03T02:59:55Z</time>
      </trkpt>
      <trkpt lat="44.42382" lon="2.43535">
        <ele>582</ele>
        <time>2017-05-03T03:01:55Z</time>
      </trkpt>
      <trkpt lat="44.42379" lon="2.43492">
        <ele>580</ele>
        <time>2017-05-03T03:03:55Z</time>
      </trkpt>
      <trkpt lat="44.42361" lon="2.43443">
        <ele>582</ele>
        <time>2017-05-03T03:05:55Z</time>
      </trkpt>
      <trkpt lat="44.42331" lon="2.43325">
        <ele>592</ele>
        <time>2017-05-03T03:07:55Z</time>
      </trkpt>
      <trkpt lat="44.42319" lon="2.43292">
        <ele>590</ele>
        <time>2017-05-03T03:09:55Z</time>
      </trkpt>
      <trkpt lat="44.42296" lon="2.43202">
        <ele>586</ele>
        <time>2017-05-03T03:11:55Z</time>
      </trkpt>
      <trkpt lat="44.42279" lon="2.43099">
        <ele>580</ele>
        <time>2017-05-03T03:13:55Z</time>
      </trkpt>
      <trkpt lat="44.42278" lon="2.43029">
        <ele>571</ele>
        <time>2017-05-03T03:15:55Z</time>
      </trkpt>
      <trkpt lat="44.42272" lon="2.42992">
        <ele>567</ele>
        <time>2017-05-03T03:17:55Z</time>
      </trkpt>
      <trkpt lat="44.42264" lon="2.42947">
        <ele>559</ele>
        <time>2017-05-03T03:19:55Z</time>
      </trkpt>
      <trkpt lat="44.42287" lon="2.42964">
        <ele>555</ele>
        <time>2017-05-03T03:21:55Z</time>
      </trkpt>
      <trkpt lat="44.42305" lon="2.43007">
        <ele>558</ele>
        <time>2017-05-03T03:23:55Z</time>
      </trkpt>
      <trkpt lat="44.42327" lon="2.43074">
        <ele>561</ele>
        <time>2017-05-03T03:25:55Z</time>
      </trkpt>
      <trkpt lat="44.42338" lon="2.43125">
        <ele>564</ele>
        <time>2017-05-03T03:27:55Z</time>
      </trkpt>
      <trkpt lat="44.42357" lon="2.43185">
        <ele>557</ele>
        <time>2017-05-03T03:29:55Z</time>
      </trkpt>
      <trkpt lat="44.42396" lon="2.43265">
        <ele>540</ele>
        <time>2017-05-03T03:31:55Z</time>
      </trkpt>
      <trkpt lat="44.42419" lon="2.4328">
        <ele>526</ele>
        <time>2017-05-03T03:33:55Z</time>
      </trkpt>
      <trkpt lat="44.42437" lon="2.4328">
        <ele>515</ele>
        <time>2017-05-03T03:35:55Z</time>
      </trkpt>
      <trkpt lat="44.42462" lon="2.43318">
        <ele>506</ele>
        <time>2017-05-03T03:37:55Z</time>
      </trkpt>
      <trkpt lat="44.42489" lon="2.43378">
        <ele>501</ele>
        <time>2017-05-03T03:39:55Z</time>
      </trkpt>
      <trkpt lat="44.42518" lon="2.43436">
        <ele>498</ele>
        <time>2017-05-03T03:41:55Z</time>
      </trkpt>
      <trkpt lat="44.42563" lon="2.43513">
        <ele>498</ele>
        <time>2017-05-03T03:43:55Z</time>
      </trkpt>
      <trkpt lat="44.42615" lon="2.43578">
        <ele>506</ele>
        <time>2017-05-03T03:45:55Z</time>
      </trkpt>
      <trkpt lat="44.42649" lon="2.43614">
        <ele>517</ele>
        <time>2017-05-03T03:47:55Z</time>
      </trkpt>
      <trkpt lat="44.42688" lon="2.43629">
        <ele>521</ele>
        <time>2017-05-03T03:49:55Z</time>
      </trkpt>
      <trkpt lat="44.42722" lon="2.43636">
        <ele>524</ele>
        <time>2017-05-03T03:51:55Z</time>
      </trkpt>
      <trkpt lat="44.42748" lon="2.4364">
        <ele>525</ele>
        <time>2017-05-03T03:53:55Z</time>
      </trkpt>
      <trkpt lat="44.42757" lon="2.43674">
        <ele>539</ele>
        <time>2017-05-03T03:55:55Z</time>
      </trkpt>
      <trkpt lat="44.4275" lon="2.43713">
        <ele>552</ele>
        <time>2017-05-03T03:57:55Z</time>
      </trkpt>
      <trkpt lat="44.42765" lon="2.43754">
        <ele>573</ele>
        <time>2017-05-03T03:59:55Z</time>
      </trkpt>
      <trkpt lat="44.42788" lon="2.43801">
        <ele>592</ele>
        <time>2017-05-03T04:01:55Z</time>
      </trkpt>
      <trkpt lat="44.42808" lon="2.43825">
        <ele>601</ele>
        <time>2017-05-03T04:03:55Z</time>
      </trkpt>
      <trkpt lat="44.4284" lon="2.43758">
        <ele>591</ele>
        <time>2017-05-03T04:05:55Z</time>
      </trkpt>
      <trkpt lat="44.42859" lon="2.43715">
        <ele>589</ele>
        <time>2017-05-03T04:07:55Z</time>
      </trkpt>
      <trkpt lat="44.42868" lon="2.43674">
        <ele>586</ele>
        <time>2017-05-03T04:09:55Z</time>
      </trkpt>
      <trkpt lat="44.42874" lon="2.43627">
        <ele>584</ele>
        <time>2017-05-03T04:11:55Z</time>
      </trkpt>
      <trkpt lat="44.42869" lon="2.43595">
        <ele>579</ele>
        <time>2017-05-03T04:13:55Z</time>
      </trkpt>
      <trkpt lat="44.42865" lon="2.43522">
        <ele>571</ele>
        <time>2017-05-03T04:15:55Z</time>
      </trkpt>
      <trkpt lat="44.42898" lon="2.43402">
        <ele>574</ele>
        <time>2017-05-03T04:17:55Z</time>
      </trkpt>
      <trkpt lat="44.42921" lon="2.4338">
        <ele>582</ele>
        <time>2017-05-03T04:19:55Z</time>
      </trkpt>
      <trkpt lat="44.42946" lon="2.43325">
        <ele>581</ele>
        <time>2017-05-03T04:21:55Z</time>
      </trkpt>
      <trkpt lat="44.42955" lon="2.43295">
        <ele>578</ele>
        <time>2017-05-03T04:23:55Z</time>
      </trkpt>
      <trkpt lat="44.42955" lon="2.43258">
        <ele>569</ele>
        <time>2017-05-03T04:25:55Z</time>
      </trkpt>
      <trkpt lat="44.4297" lon="2.43177">
        <ele>561</ele>
        <time>2017-05-03T04:27:55Z</time>
      </trkpt>
      <trkpt lat="44.42992" lon="2.43104">
        <ele>555</ele>
        <time>2017-05-03T04:29:55Z</time>
      </trkpt>
      <trkpt lat="44.43006" lon="2.43041">
        <ele>547</ele>
        <time>2017-05-03T04:31:55Z</time>
      </trkpt>
      <trkpt lat="44.42998" lon="2.43009">
        <ele>538</ele>
        <time>2017-05-03T04:33:55Z</time>
      </trkpt>
      <trkpt lat="44.43039" lon="2.42906">
        <ele>529</ele>
        <time>2017-05-03T04:35:55Z</time>
      </trkpt>
      <trkpt lat="44.43045" lon="2.42857">
        <ele>520</ele>
        <time>2017-05-03T04:37:55Z</time>
      </trkpt>
      <trkpt lat="44.43056" lon="2.42816">
        <ele>514</ele>
        <time>2017-05-03T04:39:55Z</time>
      </trkpt>
      <trkpt lat="44.43075" lon="2.42754">
        <ele>510</ele>
        <time>2017-05-03T04:41:55Z</time>
      </trkpt>
      <trkpt lat="44.43082" lon="2.42711">
        <ele>506</ele>
        <time>2017-05-03T04:43:55Z</time>
      </trkpt>
      <trkpt lat="44.43088" lon="2.42638">
        <ele>501</ele>
        <time>2017-05-03T04:45:55Z</time>
      </trkpt>
      <trkpt lat="44.43096" lon="2.42595">
        <ele>499</ele>
        <time>2017-05-03T04:47:55Z</time>
      </trkpt>
      <trkpt lat="44.43091" lon="2.42561">
        <ele>503</ele>
        <time>2017-05-03T04:49:55Z</time>
      </trkpt>
      <trkpt lat="44.43068" lon="2.42533">
        <ele>508</ele>
        <time>2017-05-03T04:51:55Z</time>
      </trkpt>
      <trkpt lat="44.43044" lon="2.42522">
        <ele>506</ele>
        <time>2017-05-03T04:53:55Z</time>
      </trkpt>
      <trkpt lat="44.43019" lon="2.42488">
        <ele>506</ele>
        <time>2017-05-03T04:55:55Z</time>
      </trkpt>
      <trkpt lat="44.43007" lon="2.4246">
        <ele>505</ele>
        <time>2017-05-03T04:57:55Z</time>
      </trkpt>
      <trkpt lat="44.42992" lon="2.4243">
        <ele>502</ele>
        <time>2017-05-03T04:59:55Z</time>
      </trkpt>
      <trkpt lat="44.42981" lon="2.42402">
        <ele>496</ele>
        <time>2017-05-03T05:01:55Z</time>
      </trkpt>
      <trkpt lat="44.42963" lon="2.42389">
        <ele>486</ele>
        <time>2017-05-03T05:03:55Z</time>
      </trkpt>
      <trkpt lat="44.42941" lon="2.42365">
        <ele>475</ele>
        <time>2017-05-03T05:05:55Z</time>
      </trkpt>
      <trkpt lat="44.42952" lon="2.42338">
        <ele>476</ele>
        <time>2017-05-03T05:07:55Z</time>
      </trkpt>
      <trkpt lat="44.42918" lon="2.4234">
        <ele>465</ele>
        <time>2017-05-03T05:09:55Z</time>
      </trkpt>
      <trkpt lat="44.42894" lon="2.4235">
        <ele>462</ele>
        <time>2017-05-03T05:11:55Z</time>
      </trkpt>
      <trkpt lat="44.42865" lon="2.42357">
        <ele>457</ele>
        <time>2017-05-03T05:13:55Z</time>
      </trkpt>
      <trkpt lat="44.42823" lon="2.42356">
        <ele>448</ele>
        <time>2017-05-03T05:15:55Z</time>
      </trkpt>
      <trkpt lat="44.42803" lon="2.42328">
        <ele>444</ele>
        <time>2017-05-03T05:17:55Z</time>
      </trkpt>
      <trkpt lat="44.42754" lon="2.42545">
        <ele>404</ele>
        <time>2017-05-03T05:19:55Z</time>
      </trkpt>
      <trkpt lat="44.42732" lon="2.42552">
        <ele>399</ele>
        <time>2017-05-03T05:21:55Z</time>
      </trkpt>
      <trkpt lat="44.42721" lon="2.42565">
        <ele>396</ele>
        <time>2017-05-03T05:23:55Z</time>
      </trkpt>
      <trkpt lat="44.42717" lon="2.42552">
        <ele>396</ele>
        <time>2017-05-03T05:25:55Z</time>
      </trkpt>
      <trkpt lat="44.427" lon="2.42579">
        <ele>391</ele>
        <time>2017-05-03T05:27:55Z</time>
      </trkpt>
      <trkpt lat="44.42679" lon="2.42615">
        <ele>389</ele>
        <time>2017-05-03T05:29:55Z</time>
      </trkpt>
      <trkpt lat="44.42668" lon="2.42621">
        <ele>387</ele>
        <time>2017-05-03T05:31:55Z</time>
      </trkpt>
      <trkpt lat="44.42597" lon="2.42595">
        <ele>387</ele>
        <time>2017-05-03T05:33:55Z</time>
      </trkpt>
      <trkpt lat="44.42573" lon="2.42526">
        <ele>382</ele>
        <time>2017-05-03T05:35:55Z</time>
      </trkpt>
      <trkpt lat="44.42609" lon="2.42474">
        <ele>380</ele>
        <time>2017-05-03T05:37:55Z</time>
      </trkpt>
      <trkpt lat="44.42619" lon="2.4237">
        <ele>383</ele>
        <time>2017-05-03T05:39:55Z</time>
      </trkpt>
      <trkpt lat="44.42602" lon="2.42359">
        <ele>378</ele>
        <time>2017-05-03T05:41:55Z</time>
      </trkpt>
      <trkpt lat="44.4259" lon="2.42339">
        <ele>375</ele>
        <time>2017-05-03T05:43:55Z</time>
      </trkpt>
      <trkpt lat="44.42574" lon="2.42353">
        <ele>373</ele>
        <time>2017-05-03T05:45:55Z</time>
      </trkpt>
      <trkpt lat="44.42558" lon="2.42354">
        <ele>374</ele>
        <time>2017-05-03T05:47:55Z</time>
      </trkpt>
      <trkpt lat="44.42524" lon="2.42287">
        <ele>372</ele>
        <time>2017-05-03T05:49:55Z</time>
      </trkpt>
      <trkpt lat="44.42516" lon="2.42206">
        <ele>370</ele>
        <time>2017-05-03T05:51:55Z</time>
      </trkpt>
      <trkpt lat="44.42586" lon="2.42075">
        <ele>364</ele>
        <time>2017-05-03T05:53:55Z</time>
      </trkpt>
      <trkpt lat="44.42501" lon="2.41901">
        <ele>358</ele>
        <time>2017-05-03T05:55:55Z</time>
      </trkpt>
      <trkpt lat="44.4261" lon="2.41688">
        <ele>349</ele>
        <time>2017-05-03T05:57:55Z</time>
      </trkpt>
      <trkpt lat="44.42685" lon="2.41583">
        <ele>343</ele>
        <time>2017-05-03T05:59:55Z</time>
      </trkpt>
      <trkpt lat="44.4269" lon="2.41517">
        <ele>340</ele>
        <time>2017-05-03T06:01:55Z</time>
      </trkpt>
      <trkpt lat="44.42694" lon="2.41335">
        <ele>335</ele>
        <time>2017-05-03T06:03:55Z</time>
      </trkpt>
      <trkpt lat="44.42708" lon="2.41327">
        <ele>335</ele>
        <time>2017-05-03T06:05:55Z</time>
      </trkpt>
      <trkpt lat="44.42757" lon="2.41355">
        <ele>335</ele>
        <time>2017-05-03T06:07:55Z</time>
      </trkpt>
      <trkpt lat="44.42818" lon="2.41426">
        <ele>335</ele>
        <time>2017-05-03T06:09:55Z</time>
      </trkpt>
      <trkpt lat="44.42846" lon="2.41446">
        <ele>336</ele>
        <time>2017-05-03T06:11:55Z</time>
      </trkpt>
      <trkpt lat="44.43025" lon="2.41389">
        <ele>337</ele>
        <time>2017-05-03T06:13:55Z</time>
      </trkpt>
      <trkpt lat="44.43179" lon="2.41374">
        <ele>331</ele>
        <time>2017-05-03T06:15:55Z</time>
      </trkpt>
      <trkpt lat="44.43255" lon="2.41404">
        <ele>329</ele>
        <time>2017-05-03T06:17:55Z</time>
      </trkpt>
      <trkpt lat="44.43307" lon="2.4143">
        <ele>329</ele>
        <time>2017-05-03T06:19:55Z</time>
      </trkpt>
      <trkpt lat="44.43407" lon="2.41583">
        <ele>329</ele>
        <time>2017-05-03T06:21:55Z</time>
      </trkpt>
      <trkpt lat="44.43542" lon="2.41713">
        <ele>328</ele>
        <time>2017-05-03T06:23:55Z</time>
      </trkpt>
      <trkpt lat="44.43609" lon="2.41675">
        <ele>326</ele>
        <time>2017-05-03T06:25:55Z</time>
      </trkpt>
      <trkpt lat="44.43595" lon="2.41533">
        <ele>332</ele>
        <time>2017-05-03T06:27:55Z</time>
      </trkpt>
      <trkpt lat="44.43825" lon="2.41533">
        <ele>349</ele>
        <time>2017-05-03T06:29:55Z</time>
      </trkpt>
      <trkpt lat="44.4399" lon="2.41556">
        <ele>352</ele>
        <time>2017-05-03T06:31:55Z</time>
      </trkpt>
      <trkpt lat="44.44115" lon="2.41544">
        <ele>359</ele>
        <time>2017-05-03T06:33:55Z</time>
      </trkpt>
      <trkpt lat="44.44224" lon="2.41463">
        <ele>374</ele>
        <time>2017-05-03T06:35:55Z</time>
      </trkpt>
      <trkpt lat="44.44327" lon="2.41336">
        <ele>380</ele>
        <time>2017-05-03T06:37:55Z</time>
      </trkpt>
      <trkpt lat="44.44374" lon="2.41157">
        <ele>402</ele>
        <time>2017-05-03T06:39:55Z</time>
      </trkpt>
      <trkpt lat="44.44383" lon="2.41116">
        <ele>410</ele>
        <time>2017-05-03T06:41:55Z</time>
      </trkpt>
      <trkpt lat="44.44325" lon="2.40974">
        <ele>454</ele>
        <time>2017-05-03T06:43:55Z</time>
      </trkpt>
      <trkpt lat="44.44291" lon="2.41081">
        <ele>456</ele>
        <time>2017-05-03T06:45:55Z</time>
      </trkpt>
      <trkpt lat="44.4423" lon="2.40888">
        <ele>508</ele>
        <time>2017-05-03T06:47:55Z</time>
      </trkpt>
      <trkpt lat="44.44142" lon="2.40927">
        <ele>512</ele>
        <time>2017-05-03T06:49:55Z</time>
      </trkpt>
      <trkpt lat="44.44032" lon="2.4077">
        <ele>521</ele>
        <time>2017-05-03T06:51:55Z</time>
      </trkpt>
      <trkpt lat="44.43931" lon="2.40798">
        <ele>528</ele>
        <time>2017-05-03T06:53:55Z</time>
      </trkpt>
      <trkpt lat="44.43903" lon="2.40759">
        <ele>532</ele>
        <time>2017-05-03T06:55:55Z</time>
      </trkpt>
      <trkpt lat="44.43844" lon="2.40792">
        <ele>517</ele>
        <time>2017-05-03T06:57:55Z</time>
      </trkpt>
      <trkpt lat="44.43796" lon="2.40841">
        <ele>496</ele>
        <time>2017-05-03T06:59:55Z</time>
      </trkpt>
      <trkpt lat="44.43799" lon="2.40779">
        <ele>497</ele>
        <time>2017-05-03T07:01:55Z</time>
      </trkpt>
      <trkpt lat="44.43836" lon="2.40723">
        <ele>514</ele>
        <time>2017-05-03T07:03:55Z</time>
      </trkpt>
      <trkpt lat="44.43819" lon="2.40633">
        <ele>505</ele>
        <time>2017-05-03T07:05:55Z</time>
      </trkpt>
      <trkpt lat="44.43807" lon="2.40601">
        <ele>502</ele>
        <time>2017-05-03T07:07:55Z</time>
      </trkpt>
      <trkpt lat="44.43776" lon="2.40571">
        <ele>491</ele>
        <time>2017-05-03T07:09:55Z</time>
      </trkpt>
      <trkpt lat="44.43763" lon="2.40537">
        <ele>493</ele>
        <time>2017-05-03T07:11:55Z</time>
      </trkpt>
      <trkpt lat="44.4377" lon="2.40587">
        <ele>485</ele>
        <time>2017-05-03T07:13:55Z</time>
      </trkpt>
      <trkpt lat="44.43781" lon="2.4062">
        <ele>487</ele>
        <time>2017-05-03T07:15:55Z</time>
      </trkpt>
      <trkpt lat="44.43747" lon="2.40588">
        <ele>475</ele>
        <time>2017-05-03T07:17:55Z</time>
      </trkpt>
      <trkpt lat="44.43683" lon="2.40523">
        <ele>468</ele>
        <time>2017-05-03T07:19:55Z</time>
      </trkpt>
      <trkpt lat="44.43642" lon="2.40508">
        <ele>462</ele>
        <time>2017-05-03T07:21:55Z</time>
      </trkpt>
      <trkpt lat="44.43474" lon="2.40386">
        <ele>474</ele>
        <time>2017-05-03T07:23:55Z</time>
      </trkpt>
      <trkpt lat="44.43433" lon="2.40436">
        <ele>459</ele>
        <time>2017-05-03T07:25:55Z</time>
      </trkpt>
      <trkpt lat="44.43413" lon="2.40436">
        <ele>457</ele>
        <time>2017-05-03T07:27:55Z</time>
      </trkpt>
      <trkpt lat="44.43361" lon="2.40449">
        <ele>450</ele>
        <time>2017-05-03T07:29:55Z</time>
      </trkpt>
      <trkpt lat="44.43315" lon="2.40521">
        <ele>434</ele>
        <time>2017-05-03T07:31:55Z</time>
      </trkpt>
      <trkpt lat="44.43299" lon="2.40516">
        <ele>431</ele>
        <time>2017-05-03T07:33:55Z</time>
      </trkpt>
      <trkpt lat="44.43296" lon="2.40418">
        <ele>441</ele>
        <time>2017-05-03T07:35:55Z</time>
      </trkpt>
      <trkpt lat="44.43268" lon="2.40324">
        <ele>444</ele>
        <time>2017-05-03T07:37:55Z</time>
      </trkpt>
      <trkpt lat="44.43267" lon="2.40317">
        <ele>444</ele>
        <time>2017-05-03T07:39:55Z</time>
      </trkpt>
      <trkpt lat="44.43264" lon="2.40311">
        <ele>445</ele>
        <time>2017-05-03T07:41:55Z</time>
      </trkpt>
      <trkpt lat="44.43256" lon="2.40294">
        <ele>445</ele>
        <time>2017-05-03T07:43:55Z</time>
      </trkpt>
      <trkpt lat="44.43247" lon="2.40286">
        <ele>445</ele>
        <time>2017-05-03T07:45:55Z</time>
      </trkpt>
      <trkpt lat="44.43208" lon="2.40279">
        <ele>441</ele>
        <time>2017-05-03T07:47:55Z</time>
      </trkpt>
      <trkpt lat="44.43079" lon="2.40253">
        <ele>439</ele>
        <time>2017-05-03T07:49:55Z</time>
      </trkpt>
      <trkpt lat="44.43007" lon="2.40309">
        <ele>430</ele>
        <time>2017-05-03T07:51:55Z</time>
      </trkpt>
      <trkpt lat="44.42941" lon="2.40249">
        <ele>419</ele>
        <time>2017-05-03T07:53:55Z</time>
      </trkpt>
      <trkpt lat="44.42859" lon="2.40086">
        <ele>426</ele>
        <time>2017-05-03T07:55:55Z</time>
      </trkpt>
      <trkpt lat="44.42805" lon="2.40268">
        <ele>400</ele>
        <time>2017-05-03T07:57:55Z</time>
      </trkpt>
      <trkpt lat="44.42788" lon="2.40322">
        <ele>396</ele>
        <time>2017-05-03T07:59:55Z</time>
      </trkpt>
      <trkpt lat="44.42805" lon="2.40407">
        <ele>384</ele>
        <time>2017-05-03T08:01:55Z</time>
      </trkpt>
      <trkpt lat="44.42807" lon="2.40519">
        <ele>376</ele>
        <time>2017-05-03T08:03:55Z</time>
      </trkpt>
      <trkpt lat="44.42766" lon="2.40671">
        <ele>366</ele>
        <time>2017-05-03T08:05:55Z</time>
      </trkpt>
      <trkpt lat="44.42759" lon="2.40722">
        <ele>364</ele>
        <time>2017-05-03T08:07:55Z</time>
      </trkpt>
      <trkpt lat="44.42761" lon="2.40771">
        <ele>359</ele>
        <time>2017-05-03T08:09:55Z</time>
      </trkpt>
      <trkpt lat="44.42748" lon="2.40835">
        <ele>352</ele>
        <time>2017-05-03T08:11:55Z</time>
      </trkpt>
      <trkpt lat="44.42748" lon="2.40891">
        <ele>348</ele>
        <time>2017-05-03T08:13:55Z</time>
      </trkpt>
      <trkpt lat="44.42737" lon="2.40994">
        <ele>344</ele>
        <time>2017-05-03T08:15:55Z</time>
      </trkpt>
      <trkpt lat="44.42687" lon="2.40988">
        <ele>343</ele>
        <time>2017-05-03T08:17:55Z</time>
      </trkpt>
      <trkpt lat="44.42642" lon="2.40979">
        <ele>344</ele>
        <time>2017-05-03T08:19:55Z</time>
      </trkpt>
      <trkpt lat="44.42619" lon="2.41065">
        <ele>341</ele>
        <time>2017-05-03T08:21:55Z</time>
      </trkpt>
      <trkpt lat="44.42577" lon="2.41081">
        <ele>340</ele>
        <time>2017-05-03T08:23:55Z</time>
      </trkpt>
      <trkpt lat="44.42529" lon="2.41135">
        <ele>338</ele>
        <time>2017-05-03T08:25:55Z</time>
      </trkpt>
      <trkpt lat="44.42408" lon="2.41146">
        <ele>340</ele>
        <time>2017-05-03T08:27:55Z</time>
      </trkpt>
      <trkpt lat="44.42316" lon="2.41167">
        <ele>340</ele>
        <time>2017-05-03T08:29:55Z</time>
      </trkpt>
      <trkpt lat="44.42253" lon="2.41139">
        <ele>343</ele>
        <time>2017-05-03T08:31:55Z</time>
      </trkpt>
      <trkpt lat="44.4214" lon="2.41184">
        <ele>346</ele>
        <time>2017-05-03T08:33:55Z</time>
      </trkpt>
      <trkpt lat="44.42042" lon="2.41255">
        <ele>350</ele>
        <time>2017-05-03T08:35:55Z</time>
      </trkpt>
      <trkpt lat="44.41919" lon="2.4144">
        <ele>350</ele>
        <time>2017-05-03T08:37:55Z</time>
      </trkpt>
      <trkpt lat="44.41835" lon="2.41495">
        <ele>350</ele>
        <time>2017-05-03T08:39:55Z</time>
      </trkpt>
      <trkpt lat="44.41766" lon="2.41486">
        <ele>352</ele>
        <time>2017-05-03T08:41:55Z</time>
      </trkpt>
      <trkpt lat="44.41726" lon="2.41526">
        <ele>349</ele>
        <time>2017-05-03T08:43:55Z</time>
      </trkpt>
      <trkpt lat="44.41662" lon="2.41466">
        <ele>356</ele>
        <time>2017-05-03T08:45:55Z</time>
      </trkpt>
      <trkpt lat="44.41611" lon="2.41425">
        <ele>360</ele>
        <time>2017-05-03T08:47:55Z</time>
      </trkpt>
      <trkpt lat="44.41552" lon="2.41206">
        <ele>377</ele>
        <time>2017-05-03T08:49:55Z</time>
      </trkpt>
      <trkpt lat="44.41467" lon="2.41185">
        <ele>389</ele>
        <time>2017-05-03T08:51:55Z</time>
      </trkpt>
      <trkpt lat="44.41422" lon="2.41267">
        <ele>386</ele>
        <time>2017-05-03T08:53:55Z</time>
      </trkpt>
      <trkpt lat="44.41401" lon="2.41292">
        <ele>386</ele>
        <time>2017-05-03T08:55:55Z</time>
      </trkpt>
      <trkpt lat="44.41346" lon="2.41318">
        <ele>391</ele>
        <time>2017-05-03T08:57:55Z</time>
      </trkpt>
      <trkpt lat="44.41361" lon="2.41444">
        <ele>377</ele>
        <time>2017-05-03T08:59:55Z</time>
      </trkpt>
      <trkpt lat="44.41388" lon="2.41478">
        <ele>372</ele>
        <time>2017-05-03T09:01:55Z</time>
      </trkpt>
      <trkpt lat="44.41419" lon="2.41492">
        <ele>368</ele>
        <time>2017-05-03T09:03:55Z</time>
      </trkpt>
      <trkpt lat="44.41436" lon="2.41522">
        <ele>362</ele>
        <time>2017-05-03T09:05:55Z</time>
      </trkpt>
      <trkpt lat="44.41428" lon="2.41558">
        <ele>359</ele>
        <time>2017-05-03T09:07:55Z</time>
      </trkpt>
      <trkpt lat="44.4139" lon="2.4157">
        <ele>361</ele>
        <time>2017-05-03T09:09:55Z</time>
      </trkpt>
      <trkpt lat="44.41356" lon="2.41628">
        <ele>356</ele>
        <time>2017-05-03T09:11:55Z</time>
      </trkpt>
      <trkpt lat="44.41323" lon="2.41636">
        <ele>357</ele>
        <time>2017-05-03T09:13:55Z</time>
      </trkpt>
      <trkpt lat="44.41311" lon="2.41662">
        <ele>354</ele>
        <time>2017-05-03T09:15:55Z</time>
      </trkpt>
      <trkpt lat="44.41313" lon="2.41694">
        <ele>351</ele>
        <time>2017-05-03T09:17:55Z</time>
      </trkpt>
      <trkpt lat="44.41331" lon="2.41749">
        <ele>345</ele>
        <time>2017-05-03T09:19:55Z</time>
      </trkpt>
      <trkpt lat="44.41351" lon="2.41818">
        <ele>346</ele>
        <time>2017-05-03T09:21:55Z</time>
      </trkpt>
      <trkpt lat="44.41351" lon="2.41849">
        <ele>347</ele>
        <time>2017-05-03T09:23:55Z</time>
      </trkpt>
      <trkpt lat="44.41326" lon="2.41889">
        <ele>351</ele>
        <time>2017-05-03T09:25:55Z</time>
      </trkpt>
      <trkpt lat="44.41342" lon="2.41944">
        <ele>355</ele>
        <time>2017-05-03T09:27:55Z</time>
      </trkpt>
      <trkpt lat="44.41346" lon="2.42015">
        <ele>359</ele>
        <time>2017-05-03T09:29:55Z</time>
      </trkpt>
      <trkpt lat="44.41339" lon="2.42037">
        <ele>360</ele>
        <time>2017-05-03T09:31:55Z</time>
      </trkpt>
      <trkpt lat="44.41357" lon="2.42048">
        <ele>359</ele>
        <time>2017-05-03T09:33:55Z</time>
      </trkpt>
      <trkpt lat="44.41353" lon="2.42087">
        <ele>360</ele>
        <time>2017-05-03T09:35:55Z</time>
      </trkpt>
      <trkpt lat="44.41355" lon="2.42107">
        <ele>359</ele>
        <time>2017-05-03T09:37:55Z</time>
      </trkpt>
      <trkpt lat="44.41332" lon="2.42105">
        <ele>361</ele>
        <time>2017-05-03T09:39:55Z</time>
      </trkpt>
      <trkpt lat="44.4136" lon="2.42151">
        <ele>357</ele>
        <time>2017-05-03T09:41:55Z</time>
      </trkpt>
      <trkpt lat="44.41377" lon="2.42137">
        <ele>356</ele>
        <time>2017-05-03T09:43:55Z</time>
      </trkpt>
      <trkpt lat="44.4138" lon="2.42128">
        <ele>356</ele>
        <time>2017-05-03T09:45:55Z</time>
      </trkpt>
      <trkpt lat="44.41405" lon="2.4212">
        <ele>354</ele>
        <time>2017-05-03T09:47:55Z</time>
      </trkpt>
      <trkpt lat="44.41413" lon="2.42106">
        <ele>354</ele>
        <time>2017-05-03T09:49:55Z</time>
      </trkpt>
      <trkpt lat="44.41424" lon="2.42068">
        <ele>353</ele>
        <time>2017-05-03T09:51:55Z</time>
      </trkpt>
      <trkpt lat="44.41434" lon="2.42068">
        <ele>353</ele>
        <time>2017-05-03T09:53:55Z</time>
      </trkpt>
      <trkpt lat="44.41447" lon="2.42064">
        <ele>353</ele>
        <time>2017-05-03T09:55:55Z</time>
      </trkpt>
      <trkpt lat="44.41467" lon="2.42044">
        <ele>353</ele>
        <time>2017-05-03T09:57:55Z</time>
      </trkpt>
    </trkseg>
  </trk>
</gpx>